createdAt,value
2018-11-07T00:00:31.580Z,74.00
2018-11-07T00:02:59.218Z,73.80
2018-11-07T00:05:26.777Z,74.00
2018-11-07T00:07:54.424Z,73.90
2018-11-07T00:10:21.974Z,74.10
2018-11-07T00:12:49.550Z,73.90
2018-11-07T00:15:17.190Z,73.70
2018-11-07T00:17:44.768Z,73.90
2018-11-07T00:20:12.750Z,73.90
2018-11-07T00:22:40.332Z,73.90
2018-11-07T00:25:09.206Z,73.60
2018-11-07T00:27:36.886Z,73.60
2018-11-07T00:30:05.710Z,73.60
2018-11-07T00:32:33.295Z,73.60
2018-11-07T00:35:00.873Z,73.50
2018-11-07T00:37:28.492Z,73.80
2018-11-07T00:39:56.080Z,73.70
2018-11-07T00:42:23.739Z,73.60
2018-11-07T00:44:51.326Z,72.70
2018-11-07T00:47:18.878Z,72.80
2018-11-07T00:49:46.440Z,72.70
2018-11-07T00:52:14.059Z,72.80
2018-11-07T00:54:41.642Z,73.20
2018-11-07T00:57:09.351Z,72.70
2018-11-07T00:59:37.064Z,72.80
2018-11-07T01:02:04.868Z,72.80
2018-11-07T01:04:32.418Z,72.90
2018-11-07T01:06:59.958Z,72.90
2018-11-07T01:09:27.653Z,72.90
2018-11-07T01:11:55.155Z,72.80
2018-11-07T01:14:22.751Z,72.70
2018-11-07T01:16:50.429Z,72.60
2018-11-07T01:19:18.054Z,72.80
2018-11-07T01:21:45.749Z,72.60
2018-11-07T01:24:13.518Z,72.80
2018-11-07T01:26:41.167Z,72.90
2018-11-07T01:29:08.769Z,73.00
2018-11-07T01:31:36.399Z,73.20
2018-11-07T01:34:04.083Z,73.20
2018-11-07T01:36:31.684Z,73.40
2018-11-07T01:38:59.196Z,73.30
2018-11-07T01:41:26.719Z,72.90
2018-11-07T01:43:54.323Z,72.40
2018-11-07T01:46:21.922Z,72.50
2018-11-07T01:48:49.505Z,72.30
2018-11-07T01:51:17.074Z,72.80
2018-11-07T01:53:44.658Z,72.60
2018-11-07T01:56:12.286Z,72.50
2018-11-07T01:58:39.979Z,72.60
2018-11-07T02:01:07.910Z,72.50
2018-11-07T02:03:35.459Z,72.60
2018-11-07T02:06:03.154Z,72.30
2018-11-07T02:08:31.395Z,72.40
2018-11-07T02:10:59.686Z,72.30
2018-11-07T02:13:27.262Z,72.00
2018-11-07T02:15:54.862Z,72.00
2018-11-07T02:18:22.452Z,72.00
2018-11-07T02:20:50.050Z,72.20
2018-11-07T02:23:17.631Z,72.70
2018-11-07T02:25:45.230Z,72.80
2018-11-07T02:28:12.826Z,72.60
2018-11-07T02:30:40.386Z,72.60
2018-11-07T02:33:08.012Z,72.40
2018-11-07T02:35:35.579Z,72.00
2018-11-07T02:38:03.234Z,72.00
2018-11-07T02:40:30.771Z,71.60
2018-11-07T02:42:58.340Z,71.50
2018-11-07T02:45:25.878Z,71.30
2018-11-07T02:47:53.446Z,71.70
2018-11-07T02:50:20.996Z,71.60
2018-11-07T02:52:48.540Z,71.50
2018-11-07T02:55:16.082Z,71.40
2018-11-07T02:57:43.639Z,70.90
2018-11-07T03:00:12.619Z,71.00
2018-11-07T03:02:40.192Z,71.00
2018-11-07T03:05:08.171Z,71.20
2018-11-07T03:07:36.240Z,71.60
2018-11-07T03:10:05.186Z,71.60
2018-11-07T03:12:32.763Z,71.80
2018-11-07T03:15:00.355Z,71.90
2018-11-07T03:17:27.930Z,71.30
2018-11-07T03:19:55.487Z,71.50
2018-11-07T03:22:23.046Z,71.20
2018-11-07T03:24:50.656Z,71.50
2018-11-07T03:27:18.193Z,71.80
2018-11-07T03:29:45.758Z,71.90
2018-11-07T03:32:13.287Z,71.50
2018-11-07T03:34:40.841Z,71.60
2018-11-07T03:37:08.412Z,72.00
2018-11-07T03:39:36.038Z,72.10
2018-11-07T03:42:03.634Z,72.00
2018-11-07T03:44:31.157Z,72.10
2018-11-07T03:46:58.734Z,72.30
2018-11-07T03:49:26.283Z,72.50
2018-11-07T03:51:53.775Z,72.70
2018-11-07T03:54:21.335Z,72.80
2018-11-07T03:56:48.869Z,72.90
2018-11-07T03:59:16.429Z,72.60
2018-11-07T04:01:43.962Z,72.50
2018-11-07T04:04:11.511Z,72.50
2018-11-07T04:06:39.109Z,72.60
2018-11-07T04:09:08.863Z,72.40
2018-11-07T04:11:36.425Z,72.10
2018-11-07T04:14:04.144Z,72.20
2018-11-07T04:16:31.686Z,72.30
2018-11-07T04:18:59.201Z,72.40
2018-11-07T04:21:26.757Z,72.30
2018-11-07T04:24:00.807Z,72.30
2018-11-07T04:26:28.614Z,71.70
2018-11-07T04:28:56.254Z,71.30
2018-11-07T04:31:23.900Z,71.80
2018-11-07T04:33:51.460Z,72.10
2018-11-07T04:36:18.982Z,72.40
2018-11-07T04:38:46.699Z,72.80
2018-11-07T04:41:14.376Z,72.90
2018-11-07T04:43:41.935Z,72.40
2018-11-07T04:46:09.464Z,72.50
2018-11-07T04:48:37.033Z,73.00
2018-11-07T04:51:04.733Z,72.70
2018-11-07T04:53:32.295Z,72.60
2018-11-07T04:55:59.891Z,72.80
2018-11-07T04:58:27.588Z,73.00
2018-11-07T05:00:55.133Z,73.50
2018-11-07T05:03:23.383Z,73.10
2018-11-07T05:05:50.957Z,73.00
2018-11-07T05:08:18.535Z,73.10
2018-11-07T05:10:46.148Z,72.90
2018-11-07T05:13:13.760Z,73.00
2018-11-07T05:15:41.328Z,73.30
2018-11-07T05:18:08.913Z,73.30
2018-11-07T05:20:36.491Z,73.00
2018-11-07T05:23:04.299Z,73.20
2018-11-07T05:25:31.841Z,72.40
2018-11-07T05:27:59.359Z,72.50
2018-11-07T05:30:26.939Z,72.70
2018-11-07T05:32:54.481Z,72.50
2018-11-07T05:35:22.045Z,72.40
2018-11-07T05:37:49.633Z,72.60
2018-11-07T05:40:17.192Z,72.70
2018-11-07T05:42:44.751Z,72.70
2018-11-07T05:45:12.413Z,72.40
2018-11-07T05:47:40.450Z,72.60
2018-11-07T05:50:08.829Z,72.20
2018-11-07T05:52:36.528Z,72.30
2018-11-07T05:55:04.676Z,72.50
2018-11-07T05:57:32.235Z,72.90
2018-11-07T06:00:00.100Z,73.50
2018-11-07T06:02:27.832Z,73.00
2018-11-07T06:04:55.483Z,72.30
2018-11-07T06:07:23.123Z,71.70
2018-11-07T06:09:50.715Z,71.60
2018-11-07T06:12:18.312Z,71.70
2018-11-07T06:14:45.899Z,71.80
2018-11-07T06:17:13.512Z,71.50
2018-11-07T06:19:41.151Z,71.40
2018-11-07T06:22:08.834Z,71.80
2018-11-07T06:24:36.444Z,72.00
2018-11-07T06:27:04.008Z,72.20
2018-11-07T06:29:31.575Z,72.40
2018-11-07T06:31:59.189Z,72.50
2018-11-07T06:34:26.789Z,72.30
2018-11-07T06:36:54.356Z,72.50
2018-11-07T06:39:21.938Z,72.70
2018-11-07T06:41:49.554Z,73.30
2018-11-07T06:44:17.243Z,73.50
2018-11-07T06:46:44.799Z,73.60
2018-11-07T06:49:12.568Z,73.50
2018-11-07T06:51:40.192Z,73.30
2018-11-07T06:54:07.826Z,72.90
2018-11-07T06:56:35.480Z,72.70
2018-11-07T06:59:03.088Z,72.70
2018-11-07T07:01:30.737Z,72.50
2018-11-07T07:03:58.316Z,72.70
2018-11-07T07:06:25.949Z,72.80
2018-11-07T07:08:53.566Z,72.90
2018-11-07T07:11:21.152Z,72.80
2018-11-07T07:13:48.772Z,73.00
2018-11-07T07:16:16.387Z,73.10
2018-11-07T07:18:43.933Z,73.20
2018-11-07T07:21:11.546Z,72.90
2018-11-07T07:23:39.142Z,72.70
2018-11-07T07:26:06.772Z,72.70
2018-11-07T07:28:34.338Z,72.90
2018-11-07T07:31:02.001Z,72.40
2018-11-07T07:33:29.650Z,72.40
2018-11-07T07:35:57.314Z,72.40
2018-11-07T07:38:25.066Z,72.60
2018-11-07T07:40:52.649Z,72.80
2018-11-07T07:43:20.238Z,73.00
2018-11-07T07:45:47.908Z,72.90
2018-11-07T07:48:15.457Z,72.90
2018-11-07T07:50:43.102Z,73.20
2018-11-07T07:53:10.750Z,73.10
2018-11-07T07:55:38.390Z,73.10
2018-11-07T07:58:06.014Z,73.20
2018-11-07T08:00:33.601Z,73.30
2018-11-07T08:03:01.233Z,73.30
2018-11-07T08:05:28.756Z,73.20
2018-11-07T08:07:56.387Z,73.40
2018-11-07T08:10:23.942Z,73.40
2018-11-07T08:12:51.696Z,73.50
2018-11-07T08:15:19.389Z,73.50
2018-11-07T08:17:46.970Z,73.50
2018-11-07T08:20:15.711Z,73.60
2018-11-07T08:22:44.171Z,73.60
2018-11-07T08:25:11.779Z,73.40
2018-11-07T08:27:39.389Z,73.40
2018-11-07T08:30:10.132Z,73.30
2018-11-07T08:32:37.788Z,73.80
2018-11-07T08:35:06.572Z,73.70
2018-11-07T08:37:34.235Z,73.80
2018-11-07T08:40:02.009Z,73.80
2018-11-07T08:42:29.656Z,73.30
2018-11-07T08:44:57.300Z,73.20
2018-11-07T08:47:24.908Z,73.00
2018-11-07T08:49:52.552Z,72.70
2018-11-07T08:52:20.146Z,72.60
2018-11-07T08:54:47.782Z,72.60
2018-11-07T08:57:15.393Z,72.60
2018-11-07T08:59:43.028Z,72.90
2018-11-07T09:02:10.655Z,72.60
2018-11-07T09:04:38.193Z,73.00
2018-11-07T09:07:05.931Z,73.20
2018-11-07T09:09:33.545Z,73.10
2018-11-07T09:12:01.184Z,73.00
2018-11-07T09:14:28.801Z,72.80
2018-11-07T09:16:56.355Z,72.80
2018-11-07T09:19:24.008Z,72.60
2018-11-07T09:21:51.652Z,73.00
2018-11-07T09:24:19.268Z,73.20
2018-11-07T09:26:46.831Z,73.20
2018-11-07T09:29:14.495Z,73.10
2018-11-07T09:31:42.044Z,72.70
2018-11-07T09:34:09.617Z,72.90
2018-11-07T09:36:37.251Z,73.10
2018-11-07T09:39:06.956Z,72.60
2018-11-07T09:44:08.922Z,73.00
2018-11-07T09:46:43.226Z,72.70
2018-11-07T09:49:11.172Z,72.60
2018-11-07T09:51:38.785Z,72.40
2018-11-07T09:54:06.482Z,73.00
2018-11-07T09:56:34.080Z,72.90
2018-11-07T09:59:01.804Z,72.90
2018-11-07T10:01:29.365Z,72.90
2018-11-07T10:03:57.779Z,73.00
2018-11-07T10:06:25.395Z,73.10
2018-11-07T10:08:52.959Z,73.50
2018-11-07T10:11:20.513Z,73.60
2018-11-07T10:13:48.098Z,73.00
2018-11-07T10:16:15.697Z,73.20
2018-11-07T10:18:43.373Z,72.60
2018-11-07T10:21:10.984Z,71.80
2018-11-07T10:23:38.573Z,71.30
2018-11-07T10:26:06.161Z,71.20
2018-11-07T10:28:33.865Z,70.30
2018-11-07T10:31:01.491Z,70.30
2018-11-07T10:33:29.121Z,69.90
2018-11-07T10:35:56.704Z,69.70
2018-11-07T10:38:24.303Z,70.30
2018-11-07T10:40:51.892Z,70.50
2018-11-07T10:43:19.537Z,70.40
2018-11-07T10:45:47.159Z,69.60
2018-11-07T10:48:14.805Z,69.20
2018-11-07T10:50:42.417Z,68.60
2018-11-07T10:53:10.016Z,68.80
2018-11-07T10:55:37.667Z,68.50
2018-11-07T10:58:05.356Z,68.30
2018-11-07T11:00:38.617Z,68.80
2018-11-07T11:03:11.937Z,68.80
2018-11-07T11:05:39.757Z,69.00
2018-11-07T11:08:07.823Z,68.50
2018-11-07T11:10:35.536Z,69.50
2018-11-07T11:13:03.309Z,69.40
2018-11-07T11:15:30.959Z,69.40
2018-11-07T11:17:58.544Z,69.00
2018-11-07T11:20:26.205Z,68.80
2018-11-07T11:22:53.874Z,68.20
2018-11-07T11:25:21.479Z,68.60
2018-11-07T11:27:49.148Z,68.10
2018-11-07T11:30:16.867Z,68.90
2018-11-07T11:32:44.442Z,68.60
2018-11-07T11:35:12.207Z,68.50
2018-11-07T11:37:40.159Z,67.90
2018-11-07T11:40:09.875Z,68.20
2018-11-07T11:42:37.493Z,68.00
2018-11-07T11:45:06.404Z,68.40
2018-11-07T11:47:33.976Z,67.80
2018-11-07T11:50:01.653Z,67.10
2018-11-07T11:52:29.288Z,67.60
2018-11-07T11:54:56.924Z,67.70
2018-11-07T11:57:24.558Z,67.80
2018-11-07T11:59:59.045Z,67.20
2018-11-07T12:02:26.654Z,67.70
2018-11-07T12:04:54.192Z,67.30
2018-11-07T12:07:21.762Z,67.00
2018-11-07T12:09:49.452Z,67.70
2018-11-07T12:12:17.147Z,67.70
2018-11-07T12:14:44.805Z,67.30
2018-11-07T12:17:12.431Z,66.70
2018-11-07T12:19:40.013Z,66.90
2018-11-07T12:22:07.627Z,66.80
2018-11-07T12:24:35.308Z,66.60
2018-11-07T12:27:03.035Z,66.00
2018-11-07T12:29:30.508Z,66.30
2018-11-07T12:31:58.137Z,65.70
2018-11-07T12:34:25.707Z,65.80
2018-11-07T12:36:53.340Z,65.50
2018-11-07T12:39:20.978Z,65.00
2018-11-07T12:41:48.641Z,65.60
2018-11-07T12:44:16.467Z,66.30
2018-11-07T12:46:44.258Z,65.60
2018-11-07T12:49:11.880Z,65.80
2018-11-07T12:51:39.508Z,65.50
2018-11-07T12:54:08.146Z,65.50
2018-11-07T12:56:37.096Z,64.60
2018-11-07T12:59:04.739Z,63.30
2018-11-07T13:01:32.405Z,62.70
2018-11-07T13:04:00.000Z,62.60
2018-11-07T13:06:27.653Z,62.10
2018-11-07T13:08:55.270Z,62.10
2018-11-07T13:11:22.902Z,61.80
2018-11-07T13:13:50.522Z,61.30
2018-11-07T13:16:18.211Z,59.50
2018-11-07T13:18:45.848Z,58.80
2018-11-07T13:21:13.469Z,58.40
2018-11-07T13:23:41.192Z,58.70
2018-11-07T13:26:08.812Z,58.10
2018-11-07T13:28:36.555Z,55.60
2018-11-07T13:31:04.080Z,51.90
2018-11-07T13:33:31.663Z,49.40
2018-11-07T13:35:59.264Z,48.50
2018-11-07T13:38:27.329Z,47.30
2018-11-07T13:40:55.266Z,44.90
2018-11-07T13:43:22.807Z,43.80
2018-11-07T13:45:50.488Z,42.60
2018-11-07T13:48:18.193Z,41.70
2018-11-07T13:50:45.759Z,40.70
2018-11-07T13:53:13.391Z,40.80
2018-11-07T13:55:41.022Z,40.20
2018-11-07T13:58:08.607Z,39.70
2018-11-07T14:00:36.250Z,39.50
2018-11-07T14:03:03.901Z,39.80
2018-11-07T14:05:31.694Z,40.10
2018-11-07T14:07:59.162Z,40.90
2018-11-07T14:10:26.828Z,43.30
2018-11-07T14:12:54.934Z,46.40
2018-11-07T14:15:22.749Z,47.60
2018-11-07T14:17:50.771Z,48.20
2018-11-07T14:20:18.482Z,50.00
2018-11-07T14:22:46.176Z,52.20
2018-11-07T14:25:14.016Z,54.00
2018-11-07T14:27:42.304Z,55.80
2018-11-07T14:30:12.363Z,57.50
2018-11-07T14:32:53.956Z,58.00
2018-11-07T14:35:21.981Z,59.00
2018-11-07T14:37:49.719Z,59.40
2018-11-07T14:40:17.383Z,60.90
2018-11-07T14:42:45.017Z,61.60
2018-11-07T14:45:12.720Z,62.40
2018-11-07T14:47:41.224Z,62.40
2018-11-07T14:50:09.637Z,62.60
2018-11-07T14:52:38.159Z,63.50
2018-11-07T14:55:06.106Z,63.80
2018-11-07T14:57:34.230Z,63.90
2018-11-07T15:00:02.288Z,64.20
2018-11-07T15:02:29.932Z,64.60
2018-11-07T15:04:57.530Z,64.90
2018-11-07T15:07:25.217Z,65.20
2018-11-07T15:09:53.223Z,65.70
2018-11-07T15:12:20.885Z,65.80
2018-11-07T15:14:48.547Z,66.10
2018-11-07T15:17:16.291Z,66.40
2018-11-07T15:19:43.887Z,66.80
2018-11-07T15:22:11.534Z,67.00
2018-11-07T15:24:39.177Z,67.30
2018-11-07T15:27:07.177Z,67.40
2018-11-07T15:29:34.806Z,67.60
2018-11-07T15:32:02.442Z,67.60
2018-11-07T15:34:30.057Z,68.00
2018-11-07T15:36:57.723Z,68.10
2018-11-07T15:39:25.318Z,68.20
2018-11-07T15:41:52.902Z,68.40
2018-11-07T15:44:20.607Z,68.60
2018-11-07T15:46:48.185Z,68.70
2018-11-07T15:49:15.823Z,68.70
2018-11-07T15:51:43.391Z,69.00
2018-11-07T15:54:11.047Z,69.30
2018-11-07T15:56:38.709Z,69.30
2018-11-07T15:59:06.414Z,69.40
2018-11-07T16:01:34.058Z,69.40
2018-11-07T16:04:02.340Z,69.70
2018-11-07T16:06:29.979Z,69.50
2018-11-07T16:08:58.507Z,69.50
2018-11-07T16:11:27.437Z,69.60
2018-11-07T16:13:55.356Z,69.90
2018-11-07T16:16:22.976Z,70.30
2018-11-07T16:18:50.598Z,70.40
2018-11-07T16:21:18.226Z,70.60
2018-11-07T16:23:46.517Z,70.60
2018-11-07T16:26:14.398Z,70.70
2018-11-07T16:28:42.257Z,70.50
2018-11-07T16:31:11.620Z,70.60
2018-11-07T16:33:39.304Z,71.00
2018-11-07T16:36:06.944Z,70.50
2018-11-07T16:38:34.664Z,70.30
2018-11-07T16:41:02.510Z,70.60
2018-11-07T16:43:30.130Z,70.90
2018-11-07T16:45:57.781Z,70.90
2018-11-07T16:48:25.520Z,71.20
2018-11-07T16:50:53.148Z,71.40
2018-11-07T16:53:20.752Z,70.50
2018-11-07T16:55:48.402Z,70.40
2018-11-07T16:58:16.091Z,70.50
2018-11-07T17:00:43.818Z,70.30
2018-11-07T17:03:11.469Z,70.50
2018-11-07T17:05:39.728Z,71.30
2018-11-07T17:10:28.713Z,70.70
2018-11-07T17:12:56.363Z,71.20
2018-11-07T17:15:24.043Z,70.60
2018-11-07T17:17:51.704Z,70.50
2018-11-07T17:20:19.347Z,71.00
2018-11-07T17:22:47.052Z,71.00
2018-11-07T17:25:16.444Z,71.30
2018-11-07T17:27:44.221Z,71.70
2018-11-07T17:30:12.874Z,71.90
2018-11-07T17:32:40.653Z,72.00
2018-11-07T17:35:10.240Z,72.10
2018-11-07T17:37:37.961Z,72.00
2018-11-07T17:40:09.877Z,72.30
2018-11-07T17:42:37.884Z,72.20
2018-11-07T17:45:09.011Z,72.30
2018-11-07T17:47:36.785Z,72.30
2018-11-07T17:50:05.233Z,72.20
2018-11-07T17:52:32.903Z,72.00
2018-11-07T17:55:00.535Z,72.10
2018-11-07T17:57:28.135Z,71.90
2018-11-07T17:59:55.814Z,72.00
2018-11-07T18:02:23.397Z,71.70
2018-11-07T18:04:50.985Z,72.10
2018-11-07T18:07:18.618Z,72.20
2018-11-07T18:09:46.286Z,72.30
2018-11-07T18:12:13.951Z,72.60
2018-11-07T18:14:41.605Z,72.70
2018-11-07T18:17:09.348Z,72.70
2018-11-07T18:19:37.132Z,72.80
2018-11-07T18:22:05.100Z,73.20
2018-11-07T18:24:32.770Z,73.30
2018-11-07T18:27:00.437Z,73.20
2018-11-07T18:29:28.212Z,73.00
2018-11-07T18:31:55.988Z,72.70
2018-11-07T18:34:23.725Z,72.60
2018-11-07T18:36:51.425Z,72.60
2018-11-07T18:39:19.157Z,72.80
2018-11-07T18:41:46.836Z,72.90
2018-11-07T18:44:14.629Z,72.90
2018-11-07T18:46:42.290Z,72.80
2018-11-07T18:49:09.912Z,72.30
2018-11-07T18:51:37.627Z,72.50
2018-11-07T18:54:05.884Z,73.10
2018-11-07T18:56:33.765Z,73.00
2018-11-07T18:59:01.675Z,73.10
2018-11-07T19:01:29.312Z,74.30
2018-11-07T19:03:57.006Z,74.10
2018-11-07T19:06:24.645Z,74.40
2018-11-07T19:08:52.769Z,74.70
2018-11-07T19:11:20.524Z,74.60
2018-11-07T19:13:48.296Z,74.10
2018-11-07T19:16:16.152Z,74.00
2018-11-07T19:18:43.981Z,73.30
2018-11-07T19:21:11.676Z,72.80
2018-11-07T19:23:40.216Z,72.30
2018-11-07T19:26:08.046Z,72.80
2018-11-07T19:28:36.066Z,72.50
2018-11-07T19:31:04.212Z,72.50
2018-11-07T19:33:32.037Z,72.30
2018-11-07T19:35:59.978Z,72.70
2018-11-07T19:38:27.670Z,72.40
2018-11-07T19:40:55.413Z,72.20
2018-11-07T19:43:23.228Z,72.60
2018-11-07T19:45:51.183Z,72.30
2018-11-07T19:48:19.021Z,72.50
2018-11-07T19:50:46.893Z,72.50
2018-11-07T19:53:14.651Z,73.60
2018-11-07T19:55:42.401Z,74.50
2018-11-07T19:58:10.251Z,73.80
2018-11-07T20:00:38.169Z,73.20
2018-11-07T20:03:05.936Z,73.40
2018-11-07T20:05:33.637Z,73.90
2018-11-07T20:08:01.496Z,73.30
2018-11-07T20:10:29.290Z,73.60
2018-11-07T20:12:56.911Z,73.80
2018-11-07T20:15:24.632Z,73.00
2018-11-07T20:17:52.474Z,73.60
2018-11-07T20:20:20.229Z,73.80
2018-11-07T20:22:48.056Z,73.70
2018-11-07T20:25:16.028Z,73.50
2018-11-07T20:27:44.295Z,73.80
2018-11-07T20:30:14.319Z,74.00
2018-11-07T20:32:42.296Z,73.80
2018-11-07T20:35:11.608Z,73.90
2018-11-07T20:37:39.951Z,74.00
2018-11-07T20:40:09.789Z,73.90
2018-11-07T20:42:37.548Z,74.10
2018-11-07T20:45:05.926Z,74.10
2018-11-07T20:47:33.629Z,74.30
2018-11-07T20:50:01.345Z,74.20
2018-11-07T20:52:29.033Z,74.30
2018-11-07T20:54:56.819Z,74.30
2018-11-07T20:57:24.570Z,74.40
2018-11-07T20:59:52.175Z,74.30
2018-11-07T21:02:19.836Z,74.30
2018-11-07T21:04:47.470Z,74.20
2018-11-07T21:07:15.142Z,74.10
2018-11-07T21:09:42.780Z,74.10
2018-11-07T21:12:10.473Z,74.10
2018-11-07T21:14:38.127Z,74.30
2018-11-07T21:17:06.138Z,74.40
2018-11-07T21:19:33.897Z,74.50
2018-11-07T21:22:01.563Z,74.50
2018-11-07T21:24:29.191Z,74.50
2018-11-07T21:26:56.853Z,74.20
2018-11-07T21:29:24.523Z,73.90
2018-11-07T21:31:52.206Z,73.80
2018-11-07T21:34:19.859Z,73.60
2018-11-07T21:36:47.502Z,73.60
2018-11-07T21:39:15.204Z,73.60
2018-11-07T21:41:42.895Z,73.50
2018-11-07T21:44:10.504Z,73.40
2018-11-07T21:46:38.144Z,73.60
2018-11-07T21:49:05.798Z,73.50
2018-11-07T21:51:33.425Z,73.20
2018-11-07T21:54:01.037Z,73.20
2018-11-07T21:56:28.666Z,73.20
2018-11-07T21:58:56.270Z,73.20
2018-11-07T22:01:23.899Z,73.20
2018-11-07T22:03:51.496Z,73.20
2018-11-07T22:06:19.062Z,73.20
2018-11-07T22:08:46.739Z,73.50
2018-11-07T22:11:14.356Z,73.50
2018-11-07T22:13:41.944Z,73.70
2018-11-07T22:16:09.536Z,73.90
2018-11-07T22:18:37.143Z,73.80
2018-11-07T22:21:05.161Z,73.90
2018-11-07T22:23:32.748Z,73.90
2018-11-07T22:26:00.358Z,73.90
2018-11-07T22:28:27.963Z,73.70
2018-11-07T22:30:55.568Z,73.60
2018-11-07T22:33:29.729Z,73.60
2018-11-07T22:35:57.374Z,74.10
2018-11-07T22:38:24.978Z,74.10
2018-11-07T22:40:52.592Z,74.00
2018-11-07T22:43:20.187Z,74.10
2018-11-07T22:45:47.777Z,74.20
2018-11-07T22:48:15.358Z,74.20
2018-11-07T22:50:42.929Z,74.30
2018-11-07T22:53:10.553Z,74.40
2018-11-07T22:55:38.119Z,74.50
2018-11-07T22:58:05.759Z,74.70
2018-11-07T23:00:39.072Z,74.80
2018-11-07T23:03:06.649Z,74.80
2018-11-07T23:05:34.370Z,75.00
2018-11-07T23:08:01.986Z,75.10
2018-11-07T23:10:29.630Z,75.10
2018-11-07T23:12:57.241Z,75.10
2018-11-07T23:15:30.577Z,75.20
2018-11-07T23:17:58.203Z,75.20
2018-11-07T23:20:25.830Z,75.00
2018-11-07T23:22:53.565Z,74.90
2018-11-07T23:25:21.238Z,74.70
2018-11-07T23:27:48.851Z,74.70
2018-11-07T23:30:16.541Z,74.60
2018-11-07T23:32:44.085Z,74.50
2018-11-07T23:35:11.723Z,74.20
2018-11-07T23:37:39.329Z,74.30
2018-11-07T23:40:07.036Z,74.40
2018-11-07T23:42:34.629Z,74.40
2018-11-07T23:45:02.258Z,74.60
2018-11-07T23:47:29.889Z,74.70
2018-11-07T23:49:57.441Z,74.80
2018-11-07T23:52:30.720Z,74.80
2018-11-07T23:54:58.317Z,75.10
2018-11-07T23:57:25.926Z,75.40
2018-11-07T23:59:53.481Z,75.50
